sensor_id;sensor_type;location;lat;lon;timestamp;pressure;altitude;pressure_sealevel;temperature;humidity
68807;BME280;55800;54.272;18.558;2023-02-20T00:02:16;100799.91;;;4.62;68.97
68807;BME280;55800;54.272;18.558;2023-02-20T00:04:46;100788.41;;;4.63;69.09
68807;BME280;55800;54.272;18.558;2023-02-20T00:07:16;100785.72;;;4.64;68.62
68807;BME280;55800;54.272;18.558;2023-02-20T00:09:45;100790.16;;;4.65;68.73
68807;BME280;55800;54.272;18.558;2023-02-20T00:12:16;100790.13;;;4.68;68.54
68807;BME280;55800;54.272;18.558;2023-02-20T00:14:45;100791.84;;;4.69;68.36
68807;BME280;55800;54.272;18.558;2023-02-20T00:17:14;100776.78;;;4.73;68.29
68807;BME280;55800;54.272;18.558;2023-02-20T00:19:45;100774.22;;;4.68;68.27
68807;BME280;55800;54.272;18.558;2023-02-20T00:22:14;100767.13;;;4.69;68.23
68807;BME280;55800;54.272;18.558;2023-02-20T00:24:43;100763.63;;;4.67;68.32
68807;BME280;55800;54.272;18.558;2023-02-20T00:27:14;100767.16;;;4.67;67.99
68807;BME280;55800;54.272;18.558;2023-02-20T00:29:44;100761.88;;;4.67;68.18
68807;BME280;55800;54.272;18.558;2023-02-20T00:32:15;100769.78;;;4.70;67.92
68807;BME280;55800;54.272;18.558;2023-02-20T00:34:44;100765.38;;;4.69;67.81
68807;BME280;55800;54.272;18.558;2023-02-20T00:37:14;100760.97;;;4.67;67.83
68807;BME280;55800;54.272;18.558;2023-02-20T00:39:43;100767.16;;;4.67;67.77
68807;BME280;55800;54.272;18.558;2023-02-20T00:42:12;100776.00;;;4.68;67.62
68807;BME280;55800;54.272;18.558;2023-02-20T00:44:43;100775.97;;;4.69;67.84
68807;BME280;55800;54.272;18.558;2023-02-20T00:47:12;100777.72;;;4.70;67.65
68807;BME280;55800;54.272;18.558;2023-02-20T00:49:42;100777.66;;;4.73;67.61
68807;BME280;55800;54.272;18.558;2023-02-20T00:52:14;100770.66;;;4.69;67.99
68807;BME280;55800;54.272;18.558;2023-02-20T00:54:43;100768.81;;;4.73;67.80
68807;BME280;55800;54.272;18.558;2023-02-20T00:57:13;100760.88;;;4.73;67.70
68807;BME280;55800;54.272;18.558;2023-02-20T00:59:45;100761.72;;;4.77;67.54
68807;BME280;55800;54.272;18.558;2023-02-20T01:02:15;100770.53;;;4.79;67.51
68807;BME280;55800;54.272;18.558;2023-02-20T01:04:44;100775.81;;;4.79;67.66
68807;BME280;55800;54.272;18.558;2023-02-20T01:07:13;100776.63;;;4.82;67.35
68807;BME280;55800;54.272;18.558;2023-02-20T01:09:43;100785.47;;;4.83;67.36
68807;BME280;55800;54.272;18.558;2023-02-20T01:12:15;100790.78;;;4.81;67.36
68807;BME280;55800;54.272;18.558;2023-02-20T01:14:47;100786.34;;;4.82;67.31
68807;BME280;55800;54.272;18.558;2023-02-20T01:17:17;100777.47;;;4.86;67.28
68807;BME280;55800;54.272;18.558;2023-02-20T01:19:47;100773.91;;;4.87;66.98
68807;BME280;55800;54.272;18.558;2023-02-20T01:22:19;100765.97;;;4.87;66.96
68807;BME280;55800;54.272;18.558;2023-02-20T01:24:49;100759.84;;;4.83;67.00
68807;BME280;55800;54.272;18.558;2023-02-20T01:27:18;100753.69;;;4.83;67.19
68807;BME280;55800;54.272;18.558;2023-02-20T01:29:49;100754.53;;;4.85;67.17
68807;BME280;55800;54.272;18.558;2023-02-20T01:32:20;100751.84;;;4.88;66.96
68807;BME280;55800;54.272;18.558;2023-02-20T01:34:49;100744.81;;;4.85;66.77
68807;BME280;55800;54.272;18.558;2023-02-20T01:37:19;100765.09;;;4.88;66.87
68807;BME280;55800;54.272;18.558;2023-02-20T01:39:48;100761.59;;;4.86;66.81
68807;BME280;55800;54.272;18.558;2023-02-20T01:42:21;100757.13;;;4.86;66.84
68807;BME280;55800;54.272;18.558;2023-02-20T01:45:26;100750.91;;;4.89;66.85
68807;BME280;55800;54.272;18.558;2023-02-20T01:47:57;100749.19;;;4.88;66.77
68807;BME280;55800;54.272;18.558;2023-02-20T01:50:27;100739.47;;;4.87;66.80
68807;BME280;55800;54.272;18.558;2023-02-20T01:53:02;100728.13;;;4.80;67.10
68807;BME280;55800;54.272;18.558;2023-02-20T01:55:37;100725.47;;;4.80;66.97
68807;BME280;55800;54.272;18.558;2023-02-20T01:58:11;100717.47;;;4.82;66.98
68807;BME280;55800;54.272;18.558;2023-02-20T02:00:43;100713.06;;;4.82;67.03
68807;BME280;55800;54.272;18.558;2023-02-20T02:03:17;100714.94;;;4.77;66.94
68807;BME280;55800;54.272;18.558;2023-02-20T02:05:52;100715.78;;;4.78;66.88
68807;BME280;55800;54.272;18.558;2023-02-20T02:08:23;100701.66;;;4.79;66.83
68807;BME280;55800;54.272;18.558;2023-02-20T02:10:58;100701.69;;;4.77;66.97
68807;BME280;55800;54.272;18.558;2023-02-20T02:13:29;100705.25;;;4.74;66.96
68807;BME280;55800;54.272;18.558;2023-02-20T02:16:06;100689.41;;;4.71;67.11
68807;BME280;55800;54.272;18.558;2023-02-20T02:18:49;100688.56;;;4.69;67.19
68807;BME280;55800;54.272;18.558;2023-02-20T02:21:37;100683.31;;;4.68;67.02
68807;BME280;55800;54.272;18.558;2023-02-20T02:27:33;100686.94;;;4.61;67.25
68807;BME280;55800;54.272;18.558;2023-02-20T02:30:47;100691.41;;;4.59;67.28
68807;BME280;55800;54.272;18.558;2023-02-20T02:34:02;100695.03;;;4.53;67.35
68807;BME280;55800;54.272;18.558;2023-02-20T02:36:50;100695.06;;;4.50;67.68
68807;BME280;55800;54.272;18.558;2023-02-20T02:39:27;100672.16;;;4.49;67.73
68807;BME280;55800;54.272;18.558;2023-02-20T02:42:05;100693.31;;;4.51;67.75
68807;BME280;55800;54.272;18.558;2023-02-20T02:44:43;100681.88;;;4.49;67.72
68807;BME280;55800;54.272;18.558;2023-02-20T02:47:19;100686.28;;;4.48;67.97
68807;BME280;55800;54.272;18.558;2023-02-20T02:49:53;100680.06;;;4.51;67.74
68807;BME280;55800;54.272;18.558;2023-02-20T02:52:26;100673.00;;;4.50;67.74
68807;BME280;55800;54.272;18.558;2023-02-20T02:55:17;100675.66;;;4.51;67.69
68807;BME280;55800;54.272;18.558;2023-02-20T02:57:47;100679.19;;;4.50;67.75
68807;BME280;55800;54.272;18.558;2023-02-20T03:00:20;100674.72;;;4.52;67.67
68807;BME280;55800;54.272;18.558;2023-02-20T03:02:55;100672.16;;;4.49;67.77
68807;BME280;55800;54.272;18.558;2023-02-20T03:05:30;100655.44;;;4.46;67.73
68807;BME280;55800;54.272;18.558;2023-02-20T03:08:14;100663.38;;;4.46;67.65
68807;BME280;55800;54.272;18.558;2023-02-20T03:10:50;100666.03;;;4.44;67.84
68807;BME280;55800;54.272;18.558;2023-02-20T03:13:25;100661.63;;;4.43;67.92
68807;BME280;55800;54.272;18.558;2023-02-20T03:16:15;100660.94;;;4.34;68.15
68807;BME280;55800;54.272;18.558;2023-02-20T03:18:48;100649.47;;;4.33;68.32
68807;BME280;55800;54.272;18.558;2023-02-20T03:21:21;100640.75;;;4.28;68.31
68807;BME280;55800;54.272;18.558;2023-02-20T03:23:56;100645.22;;;4.23;68.65
68807;BME280;55800;54.272;18.558;2023-02-20T03:26:30;100632.03;;;4.20;69.12
68807;BME280;55800;54.272;18.558;2023-02-20T03:29:06;100631.25;;;4.14;69.38
68807;BME280;55800;54.272;18.558;2023-02-20T03:31:43;100628.66;;;4.11;69.39
68807;BME280;55800;54.272;18.558;2023-02-20T03:34:18;100611.09;;;4.05;69.62
68807;BME280;55800;54.272;18.558;2023-02-20T03:37:11;100630.53;;;4.04;69.66
68807;BME280;55800;54.272;18.558;2023-02-20T03:40:05;100628.00;;;3.95;69.70
68807;BME280;55800;54.272;18.558;2023-02-20T03:42:58;100621.84;;;3.96;69.67
68807;BME280;55800;54.272;18.558;2023-02-20T03:45:49;100622.78;;;3.90;69.55
68807;BME280;55800;54.272;18.558;2023-02-20T03:48:23;100632.53;;;3.87;69.50
68807;BME280;55800;54.272;18.558;2023-02-20T03:50:54;100633.53;;;3.81;69.27
68807;BME280;55800;54.272;18.558;2023-02-20T03:53:25;100644.16;;;3.77;69.45
68807;BME280;55800;54.272;18.558;2023-02-20T03:56:00;100643.31;;;3.73;69.60
68807;BME280;55800;54.272;18.558;2023-02-20T03:58:33;100624.88;;;3.69;69.52
68807;BME280;55800;54.272;18.558;2023-02-20T04:01:05;100640.81;;;3.63;69.88
68807;BME280;55800;54.272;18.558;2023-02-20T04:03:39;100625.91;;;3.57;69.99
68807;BME280;55800;54.272;18.558;2023-02-20T04:06:10;100623.31;;;3.56;70.43
68807;BME280;55800;54.272;18.558;2023-02-20T04:08:43;100616.28;;;3.53;70.62
68807;BME280;55800;54.272;18.558;2023-02-20T04:11:20;100604.88;;;3.48;70.79
68807;BME280;55800;54.272;18.558;2023-02-20T04:13:52;100608.44;;;3.46;70.74
68807;BME280;55800;54.272;18.558;2023-02-20T04:16:24;100597.94;;;3.43;70.45
68807;BME280;55800;54.272;18.558;2023-02-20T04:18:53;100600.66;;;3.35;70.43
68807;BME280;55800;54.272;18.558;2023-02-20T04:21:25;100596.25;;;3.36;70.67
68807;BME280;55800;54.272;18.558;2023-02-20T04:24:03;100582.19;;;3.34;70.25
68807;BME280;55800;54.272;18.558;2023-02-20T04:26:36;100580.44;;;3.31;69.68
68807;BME280;55800;54.272;18.558;2023-02-20T04:29:05;100570.00;;;3.24;70.29
68807;BME280;55800;54.272;18.558;2023-02-20T04:31:36;100564.69;;;3.25;70.15
68807;BME280;55800;54.272;18.558;2023-02-20T04:34:05;100572.66;;;3.21;70.39
68807;BME280;55800;54.272;18.558;2023-02-20T04:36:35;100564.81;;;3.14;70.43
68807;BME280;55800;54.272;18.558;2023-02-20T04:39:05;100556.06;;;3.12;70.70
68807;BME280;55800;54.272;18.558;2023-02-20T04:41:36;100557.84;;;3.10;70.66
68807;BME280;55800;54.272;18.558;2023-02-20T04:44:06;100552.56;;;3.10;70.41
68807;BME280;55800;54.272;18.558;2023-02-20T04:46:56;100540.25;;;3.09;70.26
68807;BME280;55800;54.272;18.558;2023-02-20T04:49:26;100535.91;;;3.04;70.53
68807;BME280;55800;54.272;18.558;2023-02-20T04:51:57;100534.22;;;2.97;70.90
68807;BME280;55800;54.272;18.558;2023-02-20T04:54:27;100528.94;;;2.97;70.77
68807;BME280;55800;54.272;18.558;2023-02-20T04:56:58;100526.31;;;2.98;70.56
68807;BME280;55800;54.272;18.558;2023-02-20T04:59:27;100509.56;;;3.01;70.79
68807;BME280;55800;54.272;18.558;2023-02-20T05:01:56;100508.72;;;2.97;71.12
68807;BME280;55800;54.272;18.558;2023-02-20T05:04:28;100500.78;;;2.99;70.91
68807;BME280;55800;54.272;18.558;2023-02-20T05:06:58;100495.47;;;3.00;70.83
68807;BME280;55800;54.272;18.558;2023-02-20T05:09:27;100489.28;;;3.01;70.93
68807;BME280;55800;54.272;18.558;2023-02-20T05:11:58;100480.47;;;3.02;70.64
68807;BME280;55800;54.272;18.558;2023-02-20T05:14:28;100485.69;;;3.05;71.07
68807;BME280;55800;54.272;18.558;2023-02-20T05:16:57;100480.44;;;3.07;70.68
68807;BME280;55800;54.272;18.558;2023-02-20T05:19:27;100472.44;;;3.10;70.70
68807;BME280;55800;54.272;18.558;2023-02-20T05:21:56;100469.72;;;3.16;70.80
68807;BME280;55800;54.272;18.558;2023-02-20T05:24:43;100466.22;;;3.15;71.00
68807;BME280;55800;54.272;18.558;2023-02-20T05:27:15;100460.06;;;3.15;70.94
68807;BME280;55800;54.272;18.558;2023-02-20T05:29:45;100465.22;;;3.23;70.90
68807;BME280;55800;54.272;18.558;2023-02-20T05:32:14;100445.81;;;3.25;71.25
68807;BME280;55800;54.272;18.558;2023-02-20T05:34:45;100429.16;;;3.20;71.39
68807;BME280;55800;54.272;18.558;2023-02-20T05:37:16;100422.09;;;3.22;71.26
68807;BME280;55800;54.272;18.558;2023-02-20T05:39:46;100424.75;;;3.22;71.36
68807;BME280;55800;54.272;18.558;2023-02-20T05:42:18;100435.25;;;3.25;71.24
68807;BME280;55800;54.272;18.558;2023-02-20T05:44:48;100429.97;;;3.25;71.32
68807;BME280;55800;54.272;18.558;2023-02-20T05:47:17;100434.28;;;3.31;71.70
68807;BME280;55800;54.272;18.558;2023-02-20T05:49:47;100423.72;;;3.31;71.49
68807;BME280;55800;54.272;18.558;2023-02-20T05:52:16;100410.50;;;3.31;71.60
68807;BME280;55800;54.272;18.558;2023-02-20T05:54:46;100420.22;;;3.29;71.96
68807;BME280;55800;54.272;18.558;2023-02-20T05:57:17;100402.56;;;3.32;71.99
68807;BME280;55800;54.272;18.558;2023-02-20T05:59:46;100398.19;;;3.30;72.42
68807;BME280;55800;54.272;18.558;2023-02-20T06:02:16;100399.94;;;3.31;72.42
68807;BME280;55800;54.272;18.558;2023-02-20T06:04:45;100377.94;;;3.30;72.34
68807;BME280;55800;54.272;18.558;2023-02-20T06:07:14;100374.38;;;3.31;72.47
68807;BME280;55800;54.272;18.558;2023-02-20T06:09:44;100366.47;;;3.30;72.47
68807;BME280;55800;54.272;18.558;2023-02-20T06:12:14;100355.91;;;3.30;72.17
68807;BME280;55800;54.272;18.558;2023-02-20T06:14:44;100346.25;;;3.29;72.34
68807;BME280;55800;54.272;18.558;2023-02-20T06:17:14;100340.09;;;3.28;72.06
68807;BME280;55800;54.272;18.558;2023-02-20T06:19:43;100348.88;;;3.30;71.99
68807;BME280;55800;54.272;18.558;2023-02-20T06:22:12;100343.63;;;3.27;72.34
68807;BME280;55800;54.272;18.558;2023-02-20T06:24:44;100333.03;;;3.30;72.03
68807;BME280;55800;54.272;18.558;2023-02-20T06:27:14;100331.22;;;3.32;71.76
68807;BME280;55800;54.272;18.558;2023-02-20T06:29:48;100325.09;;;3.30;72.79
68807;BME280;55800;54.272;18.558;2023-02-20T06:32:17;100320.69;;;3.29;72.48
68807;BME280;55800;54.272;18.558;2023-02-20T06:34:47;100318.03;;;3.31;72.18
68807;BME280;55800;54.272;18.558;2023-02-20T06:37:16;100300.44;;;3.30;72.25
68807;BME280;55800;54.272;18.558;2023-02-20T06:39:45;100293.50;;;3.24;71.97
68807;BME280;55800;54.272;18.558;2023-02-20T06:42:16;100273.19;;;3.28;72.37
68807;BME280;55800;54.272;18.558;2023-02-20T06:44:47;100277.56;;;3.29;72.32
68807;BME280;55800;54.272;18.558;2023-02-20T06:47:16;100274.94;;;3.27;72.59
68807;BME280;55800;54.272;18.558;2023-02-20T06:49:45;100282.88;;;3.27;72.50
68807;BME280;55800;54.272;18.558;2023-02-20T06:52:15;100276.69;;;3.28;72.20
68807;BME280;55800;54.272;18.558;2023-02-20T06:54:44;100270.56;;;3.25;72.30
68807;BME280;55800;54.272;18.558;2023-02-20T06:57:13;100268.78;;;3.27;72.67
68807;BME280;55800;54.272;18.558;2023-02-20T06:59:43;100258.22;;;3.27;72.55
68807;BME280;55800;54.272;18.558;2023-02-20T07:02:16;100252.19;;;3.20;73.23
68807;BME280;55800;54.272;18.558;2023-02-20T07:04:47;100254.84;;;3.18;73.01
68807;BME280;55800;54.272;18.558;2023-02-20T07:07:17;100248.72;;;3.18;73.01
68807;BME280;55800;54.272;18.558;2023-02-20T07:09:46;100249.56;;;3.18;73.03
68807;BME280;55800;54.272;18.558;2023-02-20T07:12:17;100237.16;;;3.24;72.58
68807;BME280;55800;54.272;18.558;2023-02-20T07:14:49;100232.81;;;3.20;72.51
68807;BME280;55800;54.272;18.558;2023-02-20T07:17:20;100224.81;;;3.23;72.75
68807;BME280;55800;54.272;18.558;2023-02-20T07:19:51;100218.75;;;3.19;72.26
68807;BME280;55800;54.272;18.558;2023-02-20T07:22:20;100194.13;;;3.17;72.77
68807;BME280;55800;54.272;18.558;2023-02-20T07:24:50;100189.72;;;3.16;72.31
68807;BME280;55800;54.272;18.558;2023-02-20T07:27:20;100178.31;;;3.14;72.34
68807;BME280;55800;54.272;18.558;2023-02-20T07:29:50;100161.69;;;3.10;72.68
68807;BME280;55800;54.272;18.558;2023-02-20T07:32:21;100158.16;;;3.10;72.75
68807;BME280;55800;54.272;18.558;2023-02-20T07:34:50;100144.91;;;3.13;72.39
68807;BME280;55800;54.272;18.558;2023-02-20T07:37:33;100140.63;;;3.06;73.11
68807;BME280;55800;54.272;18.558;2023-02-20T07:40:03;100103.66;;;3.07;72.82
68807;BME280;55800;54.272;18.558;2023-02-20T07:42:36;100104.47;;;3.11;72.68
68807;BME280;55800;54.272;18.558;2023-02-20T07:45:26;100104.59;;;3.05;72.71
68807;BME280;55800;54.272;18.558;2023-02-20T07:47:57;100093.13;;;3.04;73.00
68807;BME280;55800;54.272;18.558;2023-02-20T07:50:26;100104.59;;;3.03;72.77
68807;BME280;55800;54.272;18.558;2023-02-20T07:52:56;100084.25;;;3.08;73.32
68807;BME280;55800;54.272;18.558;2023-02-20T07:55:25;100075.53;;;3.03;73.20
68807;BME280;55800;54.272;18.558;2023-02-20T07:57:55;100075.63;;;3.00;72.53
68807;BME280;55800;54.272;18.558;2023-02-20T08:00:26;100050.94;;;3.01;72.51
68807;BME280;55800;54.272;18.558;2023-02-20T08:02:57;100047.59;;;2.93;73.30
68807;BME280;55800;54.272;18.558;2023-02-20T08:05:27;100030.03;;;2.92;73.33
68807;BME280;55800;54.272;18.558;2023-02-20T08:08:15;100022.06;;;2.94;73.13
68807;BME280;55800;54.272;18.558;2023-02-20T08:10:45;100008.91;;;2.92;72.74
68807;BME280;55800;54.272;18.558;2023-02-20T08:13:19;100004.66;;;2.85;73.58
68807;BME280;55800;54.272;18.558;2023-02-20T08:15:48;99998.44;;;2.86;73.32
68807;BME280;55800;54.272;18.558;2023-02-20T08:18:19;99996.72;;;2.85;72.97
68807;BME280;55800;54.272;18.558;2023-02-20T08:20:51;99991.44;;;2.85;73.61
68807;BME280;55800;54.272;18.558;2023-02-20T08:23:22;99985.25;;;2.86;73.76
68807;BME280;55800;54.272;18.558;2023-02-20T08:25:52;99980.88;;;2.85;73.71
68807;BME280;55800;54.272;18.558;2023-02-20T08:28:22;99972.13;;;2.83;73.88
68807;BME280;55800;54.272;18.558;2023-02-20T08:30:53;99968.53;;;2.87;74.06
68807;BME280;55800;54.272;18.558;2023-02-20T08:33:24;99953.69;;;2.82;73.99
68807;BME280;55800;54.272;18.558;2023-02-20T08:35:53;99944.81;;;2.84;74.20
68807;BME280;55800;54.272;18.558;2023-02-20T08:38:28;99917.50;;;2.87;74.18
68807;BME280;55800;54.272;18.558;2023-02-20T08:40:58;99923.66;;;2.87;74.50
68807;BME280;55800;54.272;18.558;2023-02-20T08:43:28;99894.66;;;2.86;75.01
68807;BME280;55800;54.272;18.558;2023-02-20T08:45:57;99877.00;;;2.88;75.29
68807;BME280;55800;54.272;18.558;2023-02-20T08:48:28;99875.09;;;2.94;75.18
68807;BME280;55800;54.272;18.558;2023-02-20T08:50:57;99864.44;;;2.97;75.46
68807;BME280;55800;54.272;18.558;2023-02-20T08:53:27;99848.56;;;3.00;75.26
68807;BME280;55800;54.272;18.558;2023-02-20T08:55:56;99826.34;;;3.09;75.77
68807;BME280;55800;54.272;18.558;2023-02-20T08:58:25;99795.31;;;3.17;75.47
68807;BME280;55800;54.272;18.558;2023-02-20T09:00:55;99732.72;;;3.21;74.85
68807;BME280;55800;54.272;18.558;2023-02-20T09:03:24;99729.19;;;3.22;75.57
68807;BME280;55800;54.272;18.558;2023-02-20T09:05:56;99751.91;;;3.29;75.79
68807;BME280;55800;54.272;18.558;2023-02-20T09:08:26;99764.94;;;3.35;76.11
68807;BME280;55800;54.272;18.558;2023-02-20T09:10:55;99741.06;;;3.38;76.19
68807;BME280;55800;54.272;18.558;2023-02-20T09:13:25;99740.06;;;3.42;76.17
68807;BME280;55800;54.272;18.558;2023-02-20T09:15:54;99724.16;;;3.45;76.00
68807;BME280;55800;54.272;18.558;2023-02-20T09:18:23;99753.03;;;3.51;76.23
68807;BME280;55800;54.272;18.558;2023-02-20T09:20:53;99711.53;;;3.56;76.13
68807;BME280;55800;54.272;18.558;2023-02-20T09:23:24;99732.53;;;3.60;76.55
68807;BME280;55800;54.272;18.558;2023-02-20T09:25:54;99708.66;;;3.63;77.21
68807;BME280;55800;54.272;18.558;2023-02-20T09:28:23;99678.56;;;3.67;76.82
68807;BME280;55800;54.272;18.558;2023-02-20T09:30:52;99679.19;;;3.77;77.27
68807;BME280;55800;54.272;18.558;2023-02-20T09:33:24;99671.97;;;3.82;77.34
68807;BME280;55800;54.272;18.558;2023-02-20T09:35:54;99678.06;;;3.85;77.44
68807;BME280;55800;54.272;18.558;2023-02-20T09:38:25;99669.13;;;3.89;77.44
68807;BME280;55800;54.272;18.558;2023-02-20T09:40:58;99644.25;;;3.95;77.45
68807;BME280;55800;54.272;18.558;2023-02-20T09:43:37;99646.69;;;4.01;77.27
68807;BME280;55800;54.272;18.558;2023-02-20T09:46:14;99648.25;;;4.08;77.32
68807;BME280;55800;54.272;18.558;2023-02-20T09:48:59;99641.06;;;4.13;77.32
68807;BME280;55800;54.272;18.558;2023-02-20T09:51:36;99634.75;;;4.17;77.17
68807;BME280;55800;54.272;18.558;2023-02-20T09:54:09;99612.56;;;4.21;77.26
68807;BME280;55800;54.272;18.558;2023-02-20T09:56:43;99631.81;;;4.26;77.21
68807;BME280;55800;54.272;18.558;2023-02-20T09:59:17;99608.69;;;4.31;77.17
68807;BME280;55800;54.272;18.558;2023-02-20T10:01:52;99603.34;;;4.34;77.04
68807;BME280;55800;54.272;18.558;2023-02-20T10:04:26;99598.72;;;4.39;77.15
68807;BME280;55800;54.272;18.558;2023-02-20T10:07:03;99596.91;;;4.41;77.19
68807;BME280;55800;54.272;18.558;2023-02-20T10:09:38;99585.19;;;4.48;76.97
68807;BME280;55800;54.272;18.558;2023-02-20T10:12:13;99596.59;;;4.50;77.22
68807;BME280;55800;54.272;18.558;2023-02-20T10:14:55;99606.97;;;4.56;77.03
68807;BME280;55800;54.272;18.558;2023-02-20T10:17:42;99622.72;;;4.61;76.92
68807;BME280;55800;54.272;18.558;2023-02-20T10:20:26;99595.19;;;4.66;76.94
68807;BME280;55800;54.272;18.558;2023-02-20T10:23:06;99568.59;;;4.69;77.07
68807;BME280;55800;54.272;18.558;2023-02-20T10:25:47;99569.22;;;4.76;77.66
68807;BME280;55800;54.272;18.558;2023-02-20T10:28:18;99554.97;;;4.80;77.59
68807;BME280;55800;54.272;18.558;2023-02-20T10:30:56;99549.59;;;4.82;78.10
68807;BME280;55800;54.272;18.558;2023-02-20T10:33:35;99541.34;;;4.91;78.11
68807;BME280;55800;54.272;18.558;2023-02-20T10:36:12;99512.94;;;4.96;78.00
68807;BME280;55800;54.272;18.558;2023-02-20T10:38:48;99516.31;;;4.99;78.60
68807;BME280;55800;54.272;18.558;2023-02-20T10:41:23;99501.88;;;5.08;78.52
68807;BME280;55800;54.272;18.558;2023-02-20T10:44:00;99501.59;;;5.15;78.97
68807;BME280;55800;54.272;18.558;2023-02-20T10:46:35;99492.63;;;5.18;79.01
68807;BME280;55800;54.272;18.558;2023-02-20T10:49:18;99479.16;;;5.24;79.26
68807;BME280;55800;54.272;18.558;2023-02-20T10:51:54;99481.59;;;5.30;79.20
68807;BME280;55800;54.272;18.558;2023-02-20T10:54:30;99471.66;;;5.35;79.37
68807;BME280;55800;54.272;18.558;2023-02-20T10:57:08;99461.63;;;5.43;79.61
68807;BME280;55800;54.272;18.558;2023-02-20T10:59:43;99445.50;;;5.49;79.46
68807;BME280;55800;54.272;18.558;2023-02-20T11:02:17;99425.75;;;5.56;79.52
68807;BME280;55800;54.272;18.558;2023-02-20T11:04:52;99421.00;;;5.64;79.69
68807;BME280;55800;54.272;18.558;2023-02-20T11:07:23;99416.31;;;5.71;79.67
68807;BME280;55800;54.272;18.558;2023-02-20T11:09:53;99413.28;;;5.80;79.64
68807;BME280;55800;54.272;18.558;2023-02-20T11:12:28;99402.53;;;5.84;79.56
68807;BME280;55800;54.272;18.558;2023-02-20T11:15:04;99403.91;;;5.93;79.60
68807;BME280;55800;54.272;18.558;2023-02-20T11:17:38;99413.41;;;5.98;79.65
68807;BME280;55800;54.272;18.558;2023-02-20T11:20:36;99414.78;;;6.07;79.67
68807;BME280;55800;54.272;18.558;2023-02-20T11:23:08;99393.38;;;6.11;79.72
68807;BME280;55800;54.272;18.558;2023-02-20T11:25:38;99402.81;;;6.18;79.50
68807;BME280;55800;54.272;18.558;2023-02-20T11:28:17;99406.78;;;6.28;79.47
68807;BME280;55800;54.272;18.558;2023-02-20T11:30:49;99393.22;;;6.35;79.38
68807;BME280;55800;54.272;18.558;2023-02-20T11:33:30;99386.03;;;6.38;79.35
68807;BME280;55800;54.272;18.558;2023-02-20T11:36:11;99360.00;;;6.46;79.09
68807;BME280;55800;54.272;18.558;2023-02-20T11:38:41;99372.19;;;6.50;79.16
68807;BME280;55800;54.272;18.558;2023-02-20T11:41:28;99358.63;;;6.56;79.02
68807;BME280;55800;54.272;18.558;2023-02-20T11:44:25;99355.78;;;6.61;79.25
68807;BME280;55800;54.272;18.558;2023-02-20T11:47:18;99367.84;;;6.68;79.17
68807;BME280;55800;54.272;18.558;2023-02-20T11:49:48;99351.63;;;6.74;78.98
68807;BME280;55800;54.272;18.558;2023-02-20T11:52:19;99350.47;;;6.79;79.21
68807;BME280;55800;54.272;18.558;2023-02-20T11:55:08;99345.81;;;6.84;79.18
68807;BME280;55800;54.272;18.558;2023-02-20T11:57:43;99354.41;;;6.89;79.13
68807;BME280;55800;54.272;18.558;2023-02-20T12:00:18;99337.31;;;6.95;79.19
68807;BME280;55800;54.272;18.558;2023-02-20T12:02:53;99346.00;;;6.98;79.59
68807;BME280;55800;54.272;18.558;2023-02-20T12:05:37;99344.13;;;7.00;79.70
68807;BME280;55800;54.272;18.558;2023-02-20T12:08:42;99323.44;;;7.07;79.79
68807;BME280;55800;54.272;18.558;2023-02-20T12:11:16;99323.31;;;7.10;79.77
68807;BME280;55800;54.272;18.558;2023-02-20T12:13:47;99324.88;;;7.14;79.92
68807;BME280;55800;54.272;18.558;2023-02-20T12:16:39;99316.75;;;7.17;80.31
68807;BME280;55800;54.272;18.558;2023-02-20T12:19:16;99298.13;;;7.17;80.68
68807;BME280;55800;54.272;18.558;2023-02-20T12:22:00;99308.56;;;7.22;80.68
68807;BME280;55800;54.272;18.558;2023-02-20T12:24:46;99283.47;;;7.27;80.46
68807;BME280;55800;54.272;18.558;2023-02-20T12:27:40;99289.72;;;7.26;81.16
68807;BME280;55800;54.272;18.558;2023-02-20T12:30:21;99293.94;;;7.30;81.30
68807;BME280;55800;54.272;18.558;2023-02-20T12:33:05;99288.50;;;7.33;81.30
68807;BME280;55800;54.272;18.558;2023-02-20T12:35:56;99283.00;;;7.36;81.31
68807;BME280;55800;54.272;18.558;2023-02-20T12:38:37;99269.56;;;7.39;81.42
68807;BME280;55800;54.272;18.558;2023-02-20T12:41:21;99271.03;;;7.45;81.40
68807;BME280;55800;54.272;18.558;2023-02-20T12:44:07;99251.59;;;7.44;81.46
68807;BME280;55800;54.272;18.558;2023-02-20T12:46:50;99240.69;;;7.49;81.58
68807;BME280;55800;54.272;18.558;2023-02-20T12:52:56;99242.13;;;7.56;81.69
68807;BME280;55800;54.272;18.558;2023-02-20T12:55:32;99225.94;;;7.60;81.49
68807;BME280;55800;54.272;18.558;2023-02-20T12:58:15;99219.41;;;7.66;81.61
68807;BME280;55800;54.272;18.558;2023-02-20T13:00:52;99221.25;;;7.65;81.58
68807;BME280;55800;54.272;18.558;2023-02-20T13:03:24;99223.72;;;7.68;81.49
68807;BME280;55800;54.272;18.558;2023-02-20T13:05:59;99214.63;;;7.72;81.38
68807;BME280;55800;54.272;18.558;2023-02-20T13:08:34;99225.13;;;7.75;81.03
68807;BME280;55800;54.272;18.558;2023-02-20T13:11:09;99206.50;;;7.75;81.24
68807;BME280;55800;54.272;18.558;2023-02-20T13:13:51;99228.72;;;7.74;81.31
68807;BME280;55800;54.272;18.558;2023-02-20T13:16:25;99241.09;;;7.75;81.20
68807;BME280;55800;54.272;18.558;2023-02-20T13:19:04;99238.25;;;7.78;81.24
68807;BME280;55800;54.272;18.558;2023-02-20T13:21:37;99238.25;;;7.78;81.20
68807;BME280;55800;54.272;18.558;2023-02-20T13:24:30;99238.97;;;7.82;81.12
68807;BME280;55800;54.272;18.558;2023-02-20T13:27:02;99227.47;;;7.81;81.34
68807;BME280;55800;54.272;18.558;2023-02-20T13:29:35;99216.69;;;7.84;81.43
68807;BME280;55800;54.272;18.558;2023-02-20T13:32:21;99217.59;;;7.83;81.32
68807;BME280;55800;54.272;18.558;2023-02-20T13:34:52;99206.81;;;7.86;81.36
68807;BME280;55800;54.272;18.558;2023-02-20T13:37:50;99217.28;;;7.89;81.32
68807;BME280;55800;54.272;18.558;2023-02-20T13:40:38;99216.25;;;7.92;81.29